sensor_id;sensor_type;location;lat;lon;timestamp;pressure;altitude;pressure_sealevel;temperature;humidity
32789;BME280;19141;48.980;8.410;2024-01-10T05:22:32;101169.09;;;-3.64;67.43
32789;BME280;19141;48.980;8.410;2024-01-10T05:24:58;101177.59;;;-3.59;67.22
32789;BME280;19141;48.980;8.410;2024-01-10T05:27:23;101176.91;;;-3.64;68.16
32789;BME280;19141;48.980;8.410;2024-01-10T05:29:48;101170.13;;;-3.68;67.74
32789;BME280;19141;48.980;8.410;2024-01-10T05:32:14;101162.06;;;-3.62;68.99
32789;BME280;19141;48.980;8.410;2024-01-10T05:34:39;101162.53;;;-3.74;68.56
32789;BME280;19141;48.980;8.410;2024-01-10T05:37:04;101158.00;;;-3.69;69.07
32789;BME280;19141;48.980;8.410;2024-01-10T05:39:30;101170.91;;;-3.66;69.43
32789;BME280;19141;48.980;8.410;2024-01-10T05:41:55;101169.19;;;-3.89;69.61
32789;BME280;19141;48.980;8.410;2024-01-10T05:44:21;101167.16;;;-3.80;70.80
32789;BME280;19141;48.980;8.410;2024-01-10T05:46:46;101165.63;;;-3.86;70.69
32789;BME280;19141;48.980;8.410;2024-01-10T05:49:12;101169.53;;;-3.98;71.56
32789;BME280;19141;48.980;8.410;2024-01-10T05:51:38;101163.16;;;-3.89;71.22
32789;BME280;19141;48.980;8.410;2024-01-10T05:54:03;101167.84;;;-3.99;71.72
32789;BME280;19141;48.980;8.410;2024-01-10T05:56:29;101164.97;;;-4.15;72.44
32789;BME280;19141;48.980;8.410;2024-01-10T05:58:55;101170.53;;;-4.24;73.58
32789;BME280;19141;48.980;8.410;2024-01-10T06:01:20;101171.34;;;-4.00;73.48
32789;BME280;19141;48.980;8.410;2024-01-10T06:03:45;101169.13;;;-4.09;73.79
32789;BME280;19141;48.980;8.410;2024-01-10T06:06:11;101173.16;;;-4.24;74.70
32789;BME280;19141;48.980;8.410;2024-01-10T06:08:36;101164.88;;;-4.35;75.47
32789;BME280;19141;48.980;8.410;2024-01-10T06:11:05;101163.00;;;-4.31;76.39
32789;BME280;19141;48.980;8.410;2024-01-10T06:13:34;101171.22;;;-4.42;77.37
32789;BME280;19141;48.980;8.410;2024-01-10T06:16:00;101172.13;;;-4.43;77.96
32789;BME280;19141;48.980;8.410;2024-01-10T06:18:25;101167.69;;;-4.41;78.73
32789;BME280;19141;48.980;8.410;2024-01-10T06:20:50;101168.31;;;-4.34;78.37
32789;BME280;19141;48.980;8.410;2024-01-10T06:23:17;101171.94;;;-4.39;78.15
32789;BME280;19141;48.980;8.410;2024-01-10T06:25:42;101167.56;;;-4.38;78.73
32789;BME280;19141;48.980;8.410;2024-01-10T06:28:07;101167.16;;;-4.51;80.36
32789;BME280;19141;48.980;8.410;2024-01-10T06:30:33;101173.34;;;-4.53;80.22
32789;BME280;19141;48.980;8.410;2024-01-10T06:33:00;101170.81;;;-4.55;79.82
32789;BME280;19141;48.980;8.410;2024-01-10T06:35:25;101171.75;;;-4.57;79.66
32789;BME280;19141;48.980;8.410;2024-01-10T06:37:51;101167.38;;;-4.57;79.63
32789;BME280;19141;48.980;8.410;2024-01-10T06:40:16;101169.19;;;-4.59;79.08
32789;BME280;19141;48.980;8.410;2024-01-10T06:42:42;101168.41;;;-4.61;79.38
32789;BME280;19141;48.980;8.410;2024-01-10T06:45:08;101172.78;;;-4.61;79.53
32789;BME280;19141;48.980;8.410;2024-01-10T06:47:34;101174.31;;;-4.56;79.35
32789;BME280;19141;48.980;8.410;2024-01-10T06:49:59;101174.94;;;-4.49;78.98
32789;BME280;19141;48.980;8.410;2024-01-10T06:52:24;101186.00;;;-4.44;77.66
32789;BME280;19141;48.980;8.410;2024-01-10T06:54:50;101185.13;;;-4.43;79.30
32789;BME280;19141;48.980;8.410;2024-01-10T06:57:15;101179.53;;;-4.57;79.18
32789;BME280;19141;48.980;8.410;2024-01-10T06:59:41;101180.56;;;-4.61;79.74
32789;BME280;19141;48.980;8.410;2024-01-10T07:02:06;101191.38;;;-4.49;78.92
32789;BME280;19141;48.980;8.410;2024-01-10T07:04:32;101186.81;;;-4.42;78.98
32789;BME280;19141;48.980;8.410;2024-01-10T07:06:57;101192.94;;;-4.43;78.92
32789;BME280;19141;48.980;8.410;2024-01-10T07:09:23;101199.13;;;-4.47;78.40
32789;BME280;19141;48.980;8.410;2024-01-10T07:11:48;101207.22;;;-4.31;78.49
32789;BME280;19141;48.980;8.410;2024-01-10T07:14:17;101200.72;;;-4.43;79.05
32789;BME280;19141;48.980;8.410;2024-01-10T07:16:42;101202.00;;;-4.30;77.38
32789;BME280;19141;48.980;8.410;2024-01-10T07:19:14;101200.09;;;-4.50;78.27
32789;BME280;19141;48.980;8.410;2024-01-10T07:21:42;101209.09;;;-4.35;78.73
32789;BME280;19141;48.980;8.410;2024-01-10T07:24:08;101203.97;;;-4.37;78.29
32789;BME280;19141;48.980;8.410;2024-01-10T07:26:36;101207.69;;;-4.20;77.50
32789;BME280;19141;48.980;8.410;2024-01-10T07:29:01;101214.72;;;-4.22;77.57
32789;BME280;19141;48.980;8.410;2024-01-10T07:31:28;101218.72;;;-4.14;76.61
32789;BME280;19141;48.980;8.410;2024-01-10T07:33:58;101227.53;;;-4.18;76.78
32789;BME280;19141;48.980;8.410;2024-01-10T07:36:24;101227.38;;;-4.13;76.67
32789;BME280;19141;48.980;8.410;2024-01-10T07:38:52;101224.78;;;-4.13;77.07
32789;BME280;19141;48.980;8.410;2024-01-10T07:41:18;101220.97;;;-4.28;77.10
32789;BME280;19141;48.980;8.410;2024-01-10T07:43:43;101231.47;;;-4.31;78.19
32789;BME280;19141;48.980;8.410;2024-01-10T07:46:09;101237.78;;;-4.13;77.17
32789;BME280;19141;48.980;8.410;2024-01-10T07:48:34;101228.91;;;-4.07;77.02
32789;BME280;19141;48.980;8.410;2024-01-10T07:51:01;101239.19;;;-4.04;77.43
32789;BME280;19141;48.980;8.410;2024-01-10T07:53:26;101241.81;;;-3.59;74.87
32789;BME280;19141;48.980;8.410;2024-01-10T07:55:52;101228.41;;;-2.64;70.77
32789;BME280;19141;48.980;8.410;2024-01-10T07:58:17;101240.53;;;-2.42;67.83
32789;BME280;19141;48.980;8.410;2024-01-10T08:00:43;101233.00;;;-1.91;63.68
32789;BME280;19141;48.980;8.410;2024-01-10T08:03:08;101225.38;;;-2.14;63.71
32789;BME280;19141;48.980;8.410;2024-01-10T08:05:35;101230.47;;;-1.92;63.48
32789;BME280;19141;48.980;8.410;2024-01-10T08:08:00;101230.47;;;-1.18;61.67
32789;BME280;19141;48.980;8.410;2024-01-10T08:10:26;101227.97;;;-0.50;60.31
32789;BME280;19141;48.980;8.410;2024-01-10T08:12:52;101230.50;;;-0.32;58.40
32789;BME280;19141;48.980;8.410;2024-01-10T08:15:18;101229.91;;;1.21;54.61
32789;BME280;19141;48.980;8.410;2024-01-10T08:17:45;101231.13;;;1.30;51.52
32789;BME280;19141;48.980;8.410;2024-01-10T08:20:10;101237.88;;;1.93;51.73
32789;BME280;19141;48.980;8.410;2024-01-10T08:22:36;101239.97;;;2.16;51.43
32789;BME280;19141;48.980;8.410;2024-01-10T08:25:02;101237.06;;;2.62;48.65
32789;BME280;19141;48.980;8.410;2024-01-10T08:27:28;101235.97;;;2.37;48.83
32789;BME280;19141;48.980;8.410;2024-01-10T08:29:53;101229.72;;;3.85;46.30
32789;BME280;19141;48.980;8.410;2024-01-10T08:32:19;101238.69;;;3.69;44.68
32789;BME280;19141;48.980;8.410;2024-01-10T08:34:47;101244.66;;;2.11;49.04
32789;BME280;19141;48.980;8.410;2024-01-10T08:37:12;101245.38;;;2.13;48.70
32789;BME280;19141;48.980;8.410;2024-01-10T08:39:38;101248.03;;;3.35;47.33
32789;BME280;19141;48.980;8.410;2024-01-10T08:42:03;101236.66;;;2.12;49.67
32789;BME280;19141;48.980;8.410;2024-01-10T08:44:29;101241.56;;;2.04;49.07
32789;BME280;19141;48.980;8.410;2024-01-10T08:46:54;101243.72;;;1.09;49.37
32789;BME280;19141;48.980;8.410;2024-01-10T08:49:19;101227.81;;;2.42;50.26
32789;BME280;19141;48.980;8.410;2024-01-10T08:51:45;101232.81;;;1.75;50.48
32789;BME280;19141;48.980;8.410;2024-01-10T08:54:12;101227.53;;;3.01;47.89
32789;BME280;19141;48.980;8.410;2024-01-10T08:56:44;101239.22;;;0.81;50.64
32789;BME280;19141;48.980;8.410;2024-01-10T08:59:13;101236.91;;;1.51;50.61
32789;BME280;19141;48.980;8.410;2024-01-10T09:01:38;101239.13;;;2.57;48.29
32789;BME280;19141;48.980;8.410;2024-01-10T09:04:07;101240.44;;;1.50;49.33
32789;BME280;19141;48.980;8.410;2024-01-10T09:06:33;101234.03;;;2.68;49.18
32789;BME280;19141;48.980;8.410;2024-01-10T09:08:59;101236.66;;;1.98;48.97
32789;BME280;19141;48.980;8.410;2024-01-10T09:11:24;101245.34;;;1.56;50.41
32789;BME280;19141;48.980;8.410;2024-01-10T09:13:51;101245.25;;;3.24;47.51
32789;BME280;19141;48.980;8.410;2024-01-10T09:16:17;101242.34;;;2.33;47.71
32789;BME280;19141;48.980;8.410;2024-01-10T09:18:44;101249.56;;;2.85;47.22
32789;BME280;19141;48.980;8.410;2024-01-10T09:21:09;101252.50;;;2.39;49.88
32789;BME280;19141;48.980;8.410;2024-01-10T09:23:35;101249.97;;;2.79;47.34
32789;BME280;19141;48.980;8.410;2024-01-10T09:26:03;101250.13;;;2.90;46.99
32789;BME280;19141;48.980;8.410;2024-01-10T09:28:29;101248.16;;;2.53;48.46
32789;BME280;19141;48.980;8.410;2024-01-10T09:30:54;101255.91;;;1.70;49.60
32789;BME280;19141;48.980;8.410;2024-01-10T09:33:20;101254.00;;;3.24;47.58
32789;BME280;19141;48.980;8.410;2024-01-10T09:35:47;101257.97;;;1.94;50.46
32789;BME280;19141;48.980;8.410;2024-01-10T09:38:12;101258.41;;;1.27;50.89
32789;BME280;19141;48.980;8.410;2024-01-10T09:40:38;101266.97;;;0.69;51.76
32789;BME280;19141;48.980;8.410;2024-01-10T09:43:05;101258.19;;;1.16;51.13
32789;BME280;19141;48.980;8.410;2024-01-10T09:45:31;101256.28;;;2.07;50.32
32789;BME280;19141;48.980;8.410;2024-01-10T09:48:00;101262.94;;;1.98;48.94
32789;BME280;19141;48.980;8.410;2024-01-10T09:50:26;101258.78;;;1.51;50.12
32789;BME280;19141;48.980;8.410;2024-01-10T09:52:53;101252.91;;;1.32;51.01
32789;BME280;19141;48.980;8.410;2024-01-10T09:55:22;101246.00;;;1.45;52.08
32789;BME280;19141;48.980;8.410;2024-01-10T09:57:48;101247.31;;;2.52;50.96
32789;BME280;19141;48.980;8.410;2024-01-10T10:00:15;101251.75;;;1.66;51.77
32789;BME280;19141;48.980;8.410;2024-01-10T10:02:41;101257.00;;;3.06;49.45
32789;BME280;19141;48.980;8.410;2024-01-10T10:05:08;101262.88;;;2.96;48.24
32789;BME280;19141;48.980;8.410;2024-01-10T10:07:46;101267.19;;;0.96;51.64
32789;BME280;19141;48.980;8.410;2024-01-10T10:10:12;101264.91;;;1.36;51.23
32789;BME280;19141;48.980;8.410;2024-01-10T10:12:44;101263.47;;;1.60;50.82
32789;BME280;19141;48.980;8.410;2024-01-10T10:15:13;101266.28;;;0.81;51.78
32789;BME280;19141;48.980;8.410;2024-01-10T10:17:40;101259.75;;;1.79;50.25
32789;BME280;19141;48.980;8.410;2024-01-10T10:20:13;101252.19;;;1.14;52.51
32789;BME280;19141;48.980;8.410;2024-01-10T10:22:39;101250.88;;;1.37;51.35
32789;BME280;19141;48.980;8.410;2024-01-10T10:25:04;101258.69;;;0.61;53.17
32789;BME280;19141;48.980;8.410;2024-01-10T10:27:30;101260.53;;;0.75;52.42
32789;BME280;19141;48.980;8.410;2024-01-10T10:29:55;101251.03;;;1.34;51.55
32789;BME280;19141;48.980;8.410;2024-01-10T10:32:21;101260.47;;;0.61;52.49
32789;BME280;19141;48.980;8.410;2024-01-10T10:34:46;101249.81;;;1.84;50.84
32789;BME280;19141;48.980;8.410;2024-01-10T10:37:12;101254.56;;;1.19;51.04
32789;BME280;19141;48.980;8.410;2024-01-10T10:39:37;101250.06;;;1.65;51.48
32789;BME280;19141;48.980;8.410;2024-01-10T10:42:03;101252.13;;;1.60;50.20
32789;BME280;19141;48.980;8.410;2024-01-10T10:44:32;101258.53;;;1.70;50.92
32789;BME280;19141;48.980;8.410;2024-01-10T10:47:04;101251.38;;;1.72;50.26
32789;BME280;19141;48.980;8.410;2024-01-10T10:49:31;101257.78;;;2.11;49.02
32789;BME280;19141;48.980;8.410;2024-01-10T10:51:59;101255.50;;;1.02;51.79
32789;BME280;19141;48.980;8.410;2024-01-10T10:54:28;101250.66;;;2.68;49.10
32789;BME280;19141;48.980;8.410;2024-01-10T10:56:57;101246.44;;;2.66;48.68
32789;BME280;19141;48.980;8.410;2024-01-10T10:59:25;101250.78;;;2.80;47.92
32789;BME280;19141;48.980;8.410;2024-01-10T11:01:51;101236.66;;;3.35;48.58
32789;BME280;19141;48.980;8.410;2024-01-10T11:04:20;101251.91;;;2.90;49.40
32789;BME280;19141;48.980;8.410;2024-01-10T11:06:46;101247.31;;;3.06;48.35
32789;BME280;19141;48.980;8.410;2024-01-10T11:09:12;101253.34;;;2.40;48.89
32789;BME280;19141;48.980;8.410;2024-01-10T11:17:42;101252.91;;;1.90;49.87
32789;BME280;19141;48.980;8.410;2024-01-10T11:25:18;101250.09;;;2.63;49.33
32789;BME280;19141;48.980;8.410;2024-01-10T11:27:44;101248.78;;;2.97;48.80
32789;BME280;19141;48.980;8.410;2024-01-10T11:30:12;101251.81;;;3.31;46.95
32789;BME280;19141;48.980;8.410;2024-01-10T11:32:38;101257.44;;;3.12;47.71
32789;BME280;19141;48.980;8.410;2024-01-10T11:35:21;101254.47;;;2.50;48.57
32789;BME280;19141;48.980;8.410;2024-01-10T11:37:47;101242.22;;;2.22;49.32
32789;BME280;19141;48.980;8.410;2024-01-10T11:40:15;101238.91;;;2.18;49.84
32789;BME280;19141;48.980;8.410;2024-01-10T11:42:45;101238.69;;;2.77;48.68
32789;BME280;19141;48.980;8.410;2024-01-10T11:47:56;101232.34;;;2.94;48.08
32789;BME280;19141;48.980;8.410;2024-01-10T11:50:23;101241.25;;;2.23;49.58
32789;BME280;19141;48.980;8.410;2024-01-10T11:52:53;101236.75;;;2.11;49.72
32789;BME280;19141;48.980;8.410;2024-01-10T11:55:46;101242.88;;;2.94;48.39
32789;BME280;19141;48.980;8.410;2024-01-10T11:58:11;101235.28;;;2.89;47.90
32789;BME280;19141;48.980;8.410;2024-01-10T12:00:37;101228.25;;;3.93;47.28
32789;BME280;19141;48.980;8.410;2024-01-10T12:03:03;101232.88;;;1.45;50.49
32789;BME280;19141;48.980;8.410;2024-01-10T12:05:29;101231.13;;;1.88;50.35
32789;BME280;19141;48.980;8.410;2024-01-10T12:07:55;101229.72;;;2.11;49.98
32789;BME280;19141;48.980;8.410;2024-01-10T12:10:21;101227.03;;;2.81;49.29
32789;BME280;19141;48.980;8.410;2024-01-10T12:12:46;101225.97;;;2.84;48.65
32789;BME280;19141;48.980;8.410;2024-01-10T12:15:11;101231.28;;;2.14;50.96
32789;BME280;19141;48.980;8.410;2024-01-10T12:17:37;101221.56;;;1.73;50.68
32789;BME280;19141;48.980;8.410;2024-01-10T12:20:03;101227.53;;;2.32;50.50
32789;BME280;19141;48.980;8.410;2024-01-10T12:22:31;101219.31;;;2.51;49.77
32789;BME280;19141;48.980;8.410;2024-01-10T12:25:04;101217.28;;;2.42;49.54
32789;BME280;19141;48.980;8.410;2024-01-10T12:27:29;101223.34;;;2.15;50.31
32789;BME280;19141;48.980;8.410;2024-01-10T12:29:55;101225.50;;;2.09;49.94
32789;BME280;19141;48.980;8.410;2024-01-10T12:32:22;101218.66;;;2.48;49.72
32789;BME280;19141;48.980;8.410;2024-01-10T12:34:47;101213.06;;;2.25;49.51
32789;BME280;19141;48.980;8.410;2024-01-10T12:37:13;101215.91;;;1.51;50.91
32789;BME280;19141;48.980;8.410;2024-01-10T12:39:39;101209.81;;;2.63;49.99
32789;BME280;19141;48.980;8.410;2024-01-10T12:42:04;101213.38;;;2.06;50.63
32789;BME280;19141;48.980;8.410;2024-01-10T12:44:30;101210.66;;;2.08;50.07
32789;BME280;19141;48.980;8.410;2024-01-10T12:46:56;101203.34;;;1.84;50.88
32789;BME280;19141;48.980;8.410;2024-01-10T12:49:22;101205.84;;;2.29;50.10
32789;BME280;19141;48.980;8.410;2024-01-10T12:51:48;101202.13;;;1.90;50.64
32789;BME280;19141;48.980;8.410;2024-01-10T12:54:15;101206.19;;;1.96;51.16
32789;BME280;19141;48.980;8.410;2024-01-10T12:56:40;101210.88;;;1.76;51.03
32789;BME280;19141;48.980;8.410;2024-01-10T12:59:05;101208.81;;;1.96;50.70
32789;BME280;19141;48.980;8.410;2024-01-10T13:01:31;101201.44;;;2.15;50.87
32789;BME280;19141;48.980;8.410;2024-01-10T13:03:56;101205.22;;;1.68;51.58
32789;BME280;19141;48.980;8.410;2024-01-10T13:06:22;101204.56;;;1.65;51.55
32789;BME280;19141;48.980;8.410;2024-01-10T13:08:48;101206.31;;;2.21;50.57
32789;BME280;19141;48.980;8.410;2024-01-10T13:11:14;101202.88;;;2.06;51.64
32789;BME280;19141;48.980;8.410;2024-01-10T13:13:41;101200.53;;;1.73;52.27
32789;BME280;19141;48.980;8.410;2024-01-10T13:16:08;101208.13;;;1.63;51.57
32789;BME280;19141;48.980;8.410;2024-01-10T13:18:38;101209.72;;;1.66;51.37
32789;BME280;19141;48.980;8.410;2024-01-10T13:21:04;101208.38;;;1.30;53.03
32789;BME280;19141;48.980;8.410;2024-01-10T13:23:30;101208.28;;;1.32;52.40
32789;BME280;19141;48.980;8.410;2024-01-10T13:25:55;101201.97;;;1.20;53.23
32789;BME280;19141;48.980;8.410;2024-01-10T13:28:20;101192.28;;;1.51;53.82
32789;BME280;19141;48.980;8.410;2024-01-10T13:30:46;101202.81;;;1.21;53.25
32789;BME280;19141;48.980;8.410;2024-01-10T13:33:11;101199.47;;;1.03;53.85
32789;BME280;19141;48.980;8.410;2024-01-10T13:35:38;101203.72;;;1.64;53.10
32789;BME280;19141;48.980;8.410;2024-01-10T13:38:04;101209.88;;;1.34;53.26
32789;BME280;19141;48.980;8.410;2024-01-10T13:40:30;101203.22;;;1.43;53.08
32789;BME280;19141;48.980;8.410;2024-01-10T13:42:57;101205.34;;;1.36;53.20
32789;BME280;19141;48.980;8.410;2024-01-10T13:45:22;101215.25;;;1.61;53.86
32789;BME280;19141;48.980;8.410;2024-01-10T13:47:48;101219.50;;;1.64;53.32
32789;BME280;19141;48.980;8.410;2024-01-10T13:50:14;101215.06;;;1.50;52.91
32789;BME280;19141;48.980;8.410;2024-01-10T13:52:40;101220.03;;;1.69;53.46
32789;BME280;19141;48.980;8.410;2024-01-10T13:55:05;101217.41;;;1.55;53.55
32789;BME280;19141;48.980;8.410;2024-01-10T13:57:32;101216.75;;;1.51;53.33
32789;BME280;19141;48.980;8.410;2024-01-10T13:59:58;101217.59;;;1.80;54.11
32789;BME280;19141;48.980;8.410;2024-01-10T14:02:24;101221.63;;;1.13;54.06
32789;BME280;19141;48.980;8.410;2024-01-10T14:04:50;101226.13;;;1.11;54.58
32789;BME280;19141;48.980;8.410;2024-01-10T14:07:16;101222.66;;;1.55;54.17
32789;BME280;19141;48.980;8.410;2024-01-10T14:09:41;101231.84;;;1.48;54.86
32789;BME280;19141;48.980;8.410;2024-01-10T14:12:06;101226.47;;;1.35;54.09
32789;BME280;19141;48.980;8.410;2024-01-10T14:14:32;101215.72;;;1.24;54.89
32789;BME280;19141;48.980;8.410;2024-01-10T14:16:57;101223.81;;;1.21;54.81
32789;BME280;19141;48.980;8.410;2024-01-10T14:19:23;101214.84;;;1.09;55.35
32789;BME280;19141;48.980;8.410;2024-01-10T14:21:48;101213.06;;;1.09;55.86
32789;BME280;19141;48.980;8.410;2024-01-10T14:24:14;101214.56;;;0.99;55.70
32789;BME280;19141;48.980;8.410;2024-01-10T14:26:39;101216.44;;;0.81;55.74
32789;BME280;19141;48.980;8.410;2024-01-10T14:29:04;101209.41;;;0.98;56.01
32789;BME280;19141;48.980;8.410;2024-01-10T14:31:30;101216.69;;;0.93;56.14
32789;BME280;19141;48.980;8.410;2024-01-10T14:33:55;101214.56;;;0.84;56.14
32789;BME280;19141;48.980;8.410;2024-01-10T14:36:22;101222.94;;;0.90;56.24
32789;BME280;19141;48.980;8.410;2024-01-10T14:38:47;101220.59;;;0.86;56.23
32789;BME280;19141;48.980;8.410;2024-01-10T14:41:13;101220.41;;;1.04;56.38
32789;BME280;19141;48.980;8.410;2024-01-10T14:43:38;101218.28;;;0.95;56.33
32789;BME280;19141;48.980;8.410;2024-01-10T14:46:04;101224.91;;;0.87;56.73
32789;BME280;19141;48.980;8.410;2024-01-10T14:48:32;101229.47;;;0.83;56.92
32789;BME280;19141;48.980;8.410;2024-01-10T14:50:59;101232.19;;;0.81;56.83
32789;BME280;19141;48.980;8.410;2024-01-10T14:53:26;101224.50;;;0.78;57.71
32789;BME280;19141;48.980;8.410;2024-01-10T14:55:51;101226.19;;;0.79;56.97
32789;BME280;19141;48.980;8.410;2024-01-10T14:58:17;101219.00;;;0.67;57.56
32789;BME280;19141;48.980;8.410;2024-01-10T15:00:44;101219.09;;;0.66;57.92
32789;BME280;19141;48.980;8.410;2024-01-10T15:03:09;101219.84;;;0.52;58.64
32789;BME280;19141;48.980;8.410;2024-01-10T15:05:36;101225.28;;;0.49;58.44
32789;BME280;19141;48.980;8.410;2024-01-10T15:08:01;101241.94;;;0.48;58.80
32789;BME280;19141;48.980;8.410;2024-01-10T15:10:27;101241.53;;;0.40;59.09
32789;BME280;19141;48.980;8.410;2024-01-10T15:12:53;101242.09;;;0.45;59.64
32789;BME280;19141;48.980;8.410;2024-01-10T15:15:18;101241.53;;;0.40;59.47
32789;BME280;19141;48.980;8.410;2024-01-10T15:17:44;101243.78;;;0.30;59.03
32789;BME280;19141;48.980;8.410;2024-01-10T15:20:10;101244.53;;;0.32;59.84
32789;BME280;19141;48.980;8.410;2024-01-10T15:22:35;101248.41;;;0.25;60.16
32789;BME280;19141;48.980;8.410;2024-01-10T15:25:04;101255.34;;;0.26;60.31
32789;BME280;19141;48.980;8.410;2024-01-10T15:27:30;101259.09;;;0.22;60.55
32789;BME280;19141;48.980;8.410;2024-01-10T15:29:55;101267.03;;;0.20;60.71
32789;BME280;19141;48.980;8.410;2024-01-10T15:32:21;101267.38;;;0.14;60.61
32789;BME280;19141;48.980;8.410;2024-01-10T15:34:46;101265.81;;;0.10;61.40
32789;BME280;19141;48.980;8.410;2024-01-10T15:37:12;101266.63;;;-0.05;62.02
32789;BME280;19141;48.980;8.410;2024-01-10T15:39:40;101262.56;;;-0.11;62.45
32789;BME280;19141;48.980;8.410;2024-01-10T15:42:05;101265.94;;;-0.09;62.48
32789;BME280;19141;48.980;8.410;2024-01-10T15:44:31;101271.75;;;-0.19;63.30
32789;BME280;19141;48.980;8.410;2024-01-10T15:46:56;101264.03;;;-0.22;63.80
32789;BME280;19141;48.980;8.410;2024-01-10T15:49:23;101267.91;;;-0.30;63.80
32789;BME280;19141;48.980;8.410;2024-01-10T15:51:49;101273.16;;;-0.30;63.69
32789;BME280;19141;48.980;8.410;2024-01-10T15:54:15;101266.22;;;-0.31;65.23
32789;BME280;19141;48.980;8.410;2024-01-10T15:56:41;101268.69;;;-0.45;65.45
32789;BME280;19141;48.980;8.410;2024-01-10T15:59:07;101266.53;;;-0.54;64.95
32789;BME280;19141;48.980;8.410;2024-01-10T16:01:35;101269.41;;;-0.59;65.56
32789;BME280;19141;48.980;8.410;2024-01-10T16:04:01;101267.63;;;-0.58;65.93
32789;BME280;19141;48.980;8.410;2024-01-10T16:06:27;101266.06;;;-0.62;66.70
32789;BME280;19141;48.980;8.410;2024-01-10T16:08:53;101273.47;;;-0.53;66.08
32789;BME280;19141;48.980;8.410;2024-01-10T16:11:18;101275.16;;;-0.69;66.78
32789;BME280;19141;48.980;8.410;2024-01-10T16:13:43;101277.06;;;-0.73;66.54
32789;BME280;19141;48.980;8.410;2024-01-10T16:16:09;101276.59;;;-0.81;67.18
32789;BME280;19141;48.980;8.410;2024-01-10T16:18:37;101282.38;;;-0.74;67.18
32789;BME280;19141;48.980;8.410;2024-01-10T16:21:06;101283.41;;;-0.77;67.03
32789;BME280;19141;48.980;8.410;2024-01-10T16:23:31;101282.69;;;-0.80;67.69
32789;BME280;19141;48.980;8.410;2024-01-10T16:25:57;101276.13;;;-0.72;67.30
32789;BME280;19141;48.980;8.410;2024-01-10T16:28:22;101284.53;;;-0.83;68.01
32789;BME280;19141;48.980;8.410;2024-01-10T16:30:48;101281.00;;;-0.82;67.35
32789;BME280;19141;48.980;8.410;2024-01-10T16:33:15;101271.69;;;-0.87;68.04
32789;BME280;19141;48.980;8.410;2024-01-10T16:35:40;101269.81;;;-0.85;68.23
32789;BME280;19141;48.980;8.410;2024-01-10T16:38:06;101270.84;;;-0.88;68.12
32789;BME280;19141;48.980;8.410;2024-01-10T16:40:31;101272.22;;;-0.80;68.58
32789;BME280;19141;48.980;8.410;2024-01-10T16:42:56;101276.34;;;-0.94;67.97
32789;BME280;19141;48.980;8.410;2024-01-10T16:45:22;101286.75;;;-0.92;69.13
32789;BME280;19141;48.980;8.410;2024-01-10T16:47:48;101281.69;;;-0.95;69.01
32789;BME280;19141;48.980;8.410;2024-01-10T16:50:16;101283.44;;;-0.96;70.46
32789;BME280;19141;48.980;8.410;2024-01-10T16:52:42;101284.66;;;-0.86;68.94
32789;BME280;19141;48.980;8.410;2024-01-10T16:55:07;101288.75;;;-0.97;68.90
32789;BME280;19141;48.980;8.410;2024-01-10T16:57:33;101288.34;;;-1.07;68.92
32789;BME280;19141;48.980;8.410;2024-01-10T16:59:58;101288.34;;;-1.07;69.52
32789;BME280;19141;48.980;8.410;2024-01-10T17:02:24;101288.81;;;-0.99;69.20
32789;BME280;19141;48.980;8.410;2024-01-10T17:04:49;101286.09;;;-1.15;69.63
32789;BME280;19141;48.980;8.410;2024-01-10T17:07:14;101287.88;;;-1.15;69.61
32789;BME280;19141;48.980;8.410;2024-01-10T17:09:40;101285.16;;;-1.14;70.49
32789;BME280;19141;48.980;8.410;2024-01-10T17:12:06;101285.63;;;-1.23;70.31
32789;BME280;19141;48.980;8.410;2024-01-10T17:14:32;101289.00;;;-1.21;70.38
32789;BME280;19141;48.980;8.410;2024-01-10T17:16:57;101283.00;;;-1.23;70.17
32789;BME280;19141;48.980;8.410;2024-01-10T17:19:23;101290.22;;;-1.28;70.98
32789;BME280;19141;48.980;8.410;2024-01-10T17:21:49;101285.91;;;-1.29;71.54
32789;BME280;19141;48.980;8.410;2024-01-10T17:24:14;101293.84;;;-1.30;71.27
32789;BME280;19141;48.980;8.410;2024-01-10T17:26:40;101292.25;;;-1.34;71.97
32789;BME280;19141;48.980;8.410;2024-01-10T17:29:05;101296.13;;;-1.24;71.07
32789;BME280;19141;48.980;8.410;2024-01-10T17:31:32;101288.88;;;-1.37;71.85
32789;BME280;19141;48.980;8.410;2024-01-10T17:33:58;101284.06;;;-1.46;72.18
32789;BME280;19141;48.980;8.410;2024-01-10T17:36:23;101295.94;;;-1.39;71.68
32789;BME280;19141;48.980;8.410;2024-01-10T17:38:49;101299.53;;;-1.41;72.45
32789;BME280;19141;48.980;8.410;2024-01-10T17:41:14;101296.22;;;-1.45;72.98
32789;BME280;19141;48.980;8.410;2024-01-10T17:43:40;101302.16;;;-1.41;72.82
32789;BME280;19141;48.980;8.410;2024-01-10T17:46:05;101300.59;;;-1.26;71.79
32789;BME280;19141;48.980;8.410;2024-01-10T17:48:30;101304.56;;;-1.37;72.04
32789;BME280;19141;48.980;8.410;2024-01-10T17:50:56;101307.78;;;-1.50;72.85
32789;BME280;19141;48.980;8.410;2024-01-10T17:53:21;101299.81;;;-1.47;72.65
32789;BME280;19141;48.980;8.410;2024-01-10T17:55:47;101301.03;;;-1.54;72.40
32789;BME280;19141;48.980;8.410;2024-01-10T17:58:12;101297.41;;;-1.52;72.90
32789;BME280;19141;48.980;8.410;2024-01-10T18:00:37;101300.75;;;-1.48;73.57
32789;BME280;19141;48.980;8.410;2024-01-10T18:03:04;101300.09;;;-1.53;73.42
32789;BME280;19141;48.980;8.410;2024-01-10T18:05:29;101306.81;;;-1.48;72.90
32789;BME280;19141;48.980;8.410;2024-01-10T18:07:54;101306.38;;;-1.39;73.78
32789;BME280;19141;48.980;8.410;2024-01-10T18:10:20;101294.59;;;-1.66;74.08
32789;BME280;19141;48.980;8.410;2024-01-10T18:12:46;101303.78;;;-1.57;73.54
32789;BME280;19141;48.980;8.410;2024-01-10T18:15:11;101298.50;;;-1.56;73.24
32789;BME280;19141;48.980;8.410;2024-01-10T18:17:37;101299.38;;;-1.57;73.82
32789;BME280;19141;48.980;8.410;2024-01-10T18:20:03;101301.50;;;-1.65;74.21
32789;BME280;19141;48.980;8.410;2024-01-10T18:22:28;101300.66;;;-1.66;74.90
32789;BME280;19141;48.980;8.410;2024-01-10T18:24:54;101302.34;;;-1.65;75.15